Airfield :
LOGIN :

Register | Disclaimer

   EN    FR    IT 

 










Legend :    VFR   Marginal VFR   IFR   Intensive IFR   Very Intensive IFR
Visi :
Ceiling :
>= 8 km
>= 3000ft
5 to 8 km
1000 to 3000 ft
1500m to 5 km
500 to 1000 ft
800 to 1500m
200 to 500 ft
< 800m
< 200 ft
Symbols :   Thunderstorms  Fog  Heavy snow  Heavy precipitations  Wind > 20 kt
SIGMETs :     Misc.  Thunderstorms  Icing  Turbulence  Mountain Waves  Volcanic Ashes







- Airport Elevation : 209 ft
- IATA code : CLY
- Download approach charts


LFKC - Calvi

CURRENT METAR :
  • 201730Z AUTO 01006KT 290V040 CAVOK 30/17 Q1013 NOSIG

EXPIRED METARs :
  • 201700Z AUTO 35008KT CAVOK 31/18 Q1012 NOSIG
  • 201630Z AUTO 03010KT CAVOK 32/18 Q1012 BECMG 18005KT
  • 201600Z AUTO 01008KT 330V040 CAVOK 33/19 Q1012 NOSIG
  • 201530Z AUTO 28008KT 240V320 9999 VCTS ///CB 31/21 Q1013 BECMG NSW FEW030
  • 201500Z AUTO 31008KT 270V350 9999 ///CB 32/20 Q1013 BECMG FEW030

TAF TAF LFKC
Valid from the 20 at 15:00 until the 21 at 15:00 UTC


201400Z 2015/2115 01010KT 9999 FEW030 TX33/2015Z TN20/2103Z
TEMPO 2015/2016 FEW035CB
BECMG 2018/2020 18005KT
BECMG 2107/2109 36010KT
TEMPO 2110/2115 FEW035CB
PROB40
TEMPO 2112/2115 TS SCT035CB BKN080
ATIS : +33 4 95 65 82 49
No reported NOTAMs for that airfield.
2 SIGMETs reported for the Marseille FIR (LFMM) :
 
SIGMET 3  cancelation
LFMM SIGMET 4 VALID 201735/201800 LFPW
LFMM MARSEILLE FIR/UIR CNL SIGMET 3 201700/201800=
SIGMET 3  CANCELED :
Embedded thunderstorms
LFMM SIGMET 3 VALID 201700/201800 LFPW
LFMM MARSEILLE FIR/UIR EMBD TS OBS WI N4415 E00545 - N4330 E00700 - N4300 E00615 - N4345 E00500 - N4415 E00545 TOP FL400 MOV SW 10KT NC=



MET'MAP, your aeronautical weather chart ! - Copyright ORBIFLY December 2007 - Disclaimer

ORBIFLY MET'MAP TEAM :

Programming & Development : Alexandra Zaïnal
Concept & Development : Baudouin d'Aumeries
Co-Development & Prog : Marc-Olivier Méhu
Technical & hardware support : Manuel Goepfert

Contact : metmap@orbifly.com




SOURCES & CREDITS :

   NOAA